Time;durP1;ratioP1;P1;durP2;ratioP2;P2;SDS_P1;SDS_P2;PMS_P1;PMS_P2;Temp;Humidity;BMP_temperature;BMP_pressure;BME280_temperature;BME280_humidity;BME280_pressure;Samples;Min_cycle;Max_cycle;Signal;HPM_P1;HPM_P2
2023/03/19 00:01:39;;;;;;;;;;;;;;;9.74;43.58;100829.78;5364303;32;44605;-61
2023/03/19 00:04:41;;;;;;;;;;;;;;;10.36;42.14;100836.72;5335245;32;37136;-60
2023/03/19 00:07:43;;;;;;;;;;;;;;;10.15;42.61;100838.19;5355836;32;37849;-72
2023/03/19 00:10:45;;;;;;;;;;;;;;;9.86;43.39;100832.97;5350661;32;34729;-73
2023/03/19 00:13:47;;;;;;;;;;;;;;;10.12;42.75;100825.16;5362234;32;36952;-73
2023/03/19 00:16:49;;;;;;;;;;;;;;;10.12;42.67;100830.44;5354926;32;36074;-72
2023/03/19 00:19:51;;;;;;;;;;;;;;;10.20;42.57;100831.03;5357871;32;35174;-73
2023/03/19 00:22:53;;;;;;;;;;;;;;;9.98;43.04;100830.84;5358609;32;35999;-73
2023/03/19 00:25:55;;;;;;;;;;;;;;;9.94;43.23;100831.81;5342728;32;36247;-60
2023/03/19 00:28:57;;;;;;;;;;;;;;;9.89;43.25;100822.34;5372371;32;35098;-68
2023/03/19 00:32:00;;;;;;;;;;;;;;;9.93;43.05;100824.00;5343567;32;35680;-61
2023/03/19 00:35:02;;;;;;;;;;;;;;;9.72;43.57;100823.72;5366360;32;36367;-72
2023/03/19 00:38:04;;;;;;;;;;;;;;;9.64;43.84;100822.19;5346132;32;35866;-73
2023/03/19 00:41:06;;;;;;;;;;;;;;;9.58;43.88;100812.72;5362646;32;35583;-71
2023/03/19 00:44:08;;;;;;;;;;;;;;;9.52;43.99;100814.66;5347604;32;45561;-62
2023/03/19 00:47:11;;;;;;;;;;;;;;;9.47;44.08;100817.44;5345981;32;35556;-60
2023/03/19 00:50:13;;;;;;;;;;;;;;;9.50;44.05;100812.09;5366526;32;34967;-60
2023/03/19 00:53:15;;;;;;;;;;;;;;;9.33;44.34;100809.91;5343546;32;35729;-73
2023/03/19 00:56:17;;;;;;;;;;;;;;;8.90;45.05;100812.84;5362882;32;35935;-61
2023/03/19 00:59:19;;;;;;;;;;;;;;;9.33;44.37;100809.06;5335621;32;35101;-60
2023/03/19 01:02:21;;;;;;;;;;;;;;;9.44;43.88;100804.38;5363872;32;35439;-72
2023/03/19 01:05:23;;;;;;;;;;;;;;;9.17;44.46;100793.75;5334786;32;35092;-72
2023/03/19 01:08:26;;;;;;;;;;;;;;;8.90;45.05;100804.97;5342729;32;35895;-67
2023/03/19 01:11:28;;;;;;;;;;;;;;;8.92;45.06;100809.25;5364573;32;35844;-59
2023/03/19 01:14:30;;;;;;;;;;;;;;;8.63;45.96;100814.34;5363241;32;35506;-61
2023/03/19 01:17:32;;;;;;;;;;;;;;;8.92;45.21;100804.03;5368625;32;35248;-60
2023/03/19 01:20:34;;;;;;;;;;;;;;;9.13;44.59;100810.47;5353257;32;36042;-73
2023/03/19 01:23:36;;;;;;;;;;;;;;;9.10;44.62;100812.31;5377805;32;35639;-60
2023/03/19 01:26:38;;;;;;;;;;;;;;;8.71;45.37;100807.19;5372278;32;44019;-72
2023/03/19 01:29:40;;;;;;;;;;;;;;;8.52;46.03;100814.62;5352940;32;35937;-73
2023/03/19 01:32:42;;;;;;;;;;;;;;;8.30;46.38;100824.69;5361087;32;34755;-65
2023/03/19 01:35:46;;;;;;;;;;;;;;;8.71;45.58;100816.81;5371109;32;35533;-73
2023/03/19 01:38:48;;;;;;;;;;;;;;;8.87;45.10;100813.75;5361633;32;35167;-73
2023/03/19 01:41:50;;;;;;;;;;;;;;;8.84;44.63;100807.75;5353036;32;35465;-68
2023/03/19 01:44:52;;;;;;;;;;;;;;;7.82;47.29;100811.78;5349726;32;37322;-73
2023/03/19 01:47:54;;;;;;;;;;;;;;;8.85;45.10;100804.22;5349957;32;35970;-72
2023/03/19 01:50:56;;;;;;;;;;;;;;;8.82;45.07;100812.16;5344036;32;35701;-73
2023/03/19 01:53:59;;;;;;;;;;;;;;;8.23;46.22;100815.25;5361452;32;34740;-73
2023/03/19 01:57:02;;;;;;;;;;;;;;;7.93;47.37;100821.19;5336274;32;35470;-72
2023/03/19 02:00:05;;;;;;;;;;;;;;;9.08;44.53;100808.84;5354235;32;35855;-61
2023/03/19 02:03:07;;;;;;;;;;;;;;;9.20;43.90;100816.41;5350165;32;35231;-73
2023/03/19 02:06:09;;;;;;;;;;;;;;;9.07;44.24;100815.00;5350846;32;44973;-71
2023/03/19 02:09:13;;;;;;;;;;;;;;;8.75;44.84;100808.81;5356649;32;35450;-61
2023/03/19 02:12:15;;;;;;;;;;;;;;;9.02;44.35;100806.44;5336348;32;36072;-74
2023/03/19 02:15:17;;;;;;;;;;;;;;;8.67;44.86;100806.37;5349465;32;35458;-68
2023/03/19 02:18:19;;;;;;;;;;;;;;;8.70;45.20;100810.72;5345524;32;35095;-61
2023/03/19 02:21:21;;;;;;;;;;;;;;;8.08;46.11;100811.25;5342050;32;35662;-74
2023/03/19 02:24:34;;;;;;;;;;;;;;;8.54;45.70;100804.97;5344801;32;36076;-60
2023/03/19 02:27:36;;;;;;;;;;;;;;;7.46;47.51;100789.84;5350992;32;34752;-73
2023/03/19 02:30:38;;;;;;;;;;;;;;;7.53;48.32;100816.75;5361172;32;35573;-60
2023/03/19 02:33:40;;;;;;;;;;;;;;;8.85;44.83;100798.97;5345782;32;44855;-72
2023/03/19 02:36:43;;;;;;;;;;;;;;;8.96;44.36;100796.94;5366995;32;35800;-61
2023/03/19 02:39:49;;;;;;;;;;;;;;;8.15;46.29;100807.59;5331730;32;35666;-73
2023/03/19 02:42:51;;;;;;;;;;;;;;;7.33;48.50;100804.91;5359520;32;35459;-61
2023/03/19 02:45:53;;;;;;;;;;;;;;;7.76;47.83;100805.84;5353484;32;35311;-73
2023/03/19 02:48:55;;;;;;;;;;;;;;;8.00;47.23;100802.69;5355529;32;36056;-73
2023/03/19 02:51:57;;;;;;;;;;;;;;;7.70;47.46;100796.34;5380798;32;35262;-68
2023/03/19 02:54:59;;;;;;;;;;;;;;;8.63;45.09;100786.44;5348480;32;35787;-60
2023/03/19 02:58:01;;;;;;;;;;;;;;;8.89;44.56;100790.16;5375718;32;35095;-72
2023/03/19 03:01:03;;;;;;;;;;;;;;;8.32;46.05;100799.34;5348979;32;34820;-74
2023/03/19 03:04:05;;;;;;;;;;;;;;;8.31;45.82;100800.25;5343264;32;35127;-60
2023/03/19 03:07:07;;;;;;;;;;;;;;;8.18;45.95;100785.72;5351294;32;35087;-72
2023/03/19 03:10:09;;;;;;;;;;;;;;;7.62;47.31;100794.78;5348680;32;44493;-60
2023/03/19 03:13:12;;;;;;;;;;;;;;;7.71;47.60;100799.81;5375059;32;34654;-73
2023/03/19 03:16:14;;;;;;;;;;;;;;;7.76;47.25;100805.84;5363654;32;34735;-61
2023/03/19 03:19:16;;;;;;;;;;;;;;;8.03;46.42;100807.84;5366418;32;35953;-74
2023/03/19 03:22:18;;;;;;;;;;;;;;;7.92;46.21;100799.41;5336846;32;34923;-60
2023/03/19 03:25:21;;;;;;;;;;;;;;;7.24;48.40;100807.72;5379824;32;36261;-67
2023/03/19 03:28:23;;;;;;;;;;;;;;;7.25;48.45;100800.75;5358641;32;35835;-61
2023/03/19 03:31:25;;;;;;;;;;;;;;;7.73;47.07;100793.69;5353860;32;35598;-61
2023/03/19 03:34:28;;;;;;;;;;;;;;;7.69;47.07;100804.25;5379342;32;35524;-74
2023/03/19 03:37:29;;;;;;;;;;;;;;;6.82;49.97;100811.94;5366746;32;35499;-60
2023/03/19 03:40:33;;;;;;;;;;;;;;;6.56;50.59;100782.78;5377377;32;35833;-71
2023/03/19 03:43:35;;;;;;;;;;;;;;;6.53;51.35;100806.34;5348857;32;34730;-60
2023/03/19 03:46:37;;;;;;;;;;;;;;;6.56;51.54;100815.00;5388018;32;35900;-61
2023/03/19 03:49:38;;;;;;;;;;;;;;;7.30;49.57;100806.75;5357199;32;45507;-72
2023/03/19 03:52:40;;;;;;;;;;;;;;;6.43;51.73;100809.09;5364716;32;35482;-72
2023/03/19 03:55:42;;;;;;;;;;;;;;;6.74;50.54;100772.03;5382833;32;34815;-73
2023/03/19 03:58:44;;;;;;;;;;;;;;;7.10;49.73;100803.66;5357269;32;34998;-59
2023/03/19 04:01:46;;;;;;;;;;;;;;;6.90;50.21;100804.88;5390097;32;35565;-73
2023/03/19 04:04:48;;;;;;;;;;;;;;;6.96;50.16;100806.50;5339845;32;34907;-72
2023/03/19 04:07:51;;;;;;;;;;;;;;;6.46;51.57;100816.91;5381273;32;36143;-61
2023/03/19 04:10:53;;;;;;;;;;;;;;;6.74;50.76;100817.31;5353563;32;35846;-61
2023/03/19 04:13:56;;;;;;;;;;;;;;;5.90;53.11;100809.84;5346136;32;34640;-60
2023/03/19 04:16:58;;;;;;;;;;;;;;;5.84;53.52;100818.59;5386307;32;34847;-61
2023/03/19 04:20:00;;;;;;;;;;;;;;;6.33;52.42;100819.72;5353411;32;35182;-61
2023/03/19 04:23:02;;;;;;;;;;;;;;;6.53;51.27;100814.19;5374198;32;35223;-74
2023/03/19 04:26:05;;;;;;;;;;;;;;;6.23;51.97;100795.47;5357141;32;36681;-60
2023/03/19 04:29:07;;;;;;;;;;;;;;;5.91;53.22;100801.16;5366067;32;35474;-73
2023/03/19 04:32:09;;;;;;;;;;;;;;;6.07;53.04;100796.59;5353926;32;45373;-72
2023/03/19 04:35:11;;;;;;;;;;;;;;;5.63;54.07;100795.41;5347709;32;35209;-72
2023/03/19 04:38:13;;;;;;;;;;;;;;;5.68;54.59;100798.81;5387741;32;35773;-62
2023/03/19 04:41:15;;;;;;;;;;;;;;;5.55;54.59;100790.28;5342254;32;36469;-61
2023/03/19 04:44:17;;;;;;;;;;;;;;;5.59;54.51;100791.09;5354689;32;34761;-60
2023/03/19 04:47:19;;;;;;;;;;;;;;;5.96;53.72;100789.78;5360003;32;36267;-60
2023/03/19 04:50:21;;;;;;;;;;;;;;;5.76;54.37;100798.72;5363334;32;35981;-71
2023/03/19 04:53:23;;;;;;;;;;;;;;;6.23;52.86;100800.69;5341954;32;35041;-61
2023/03/19 04:56:26;;;;;;;;;;;;;;;6.35;52.24;100797.91;5346113;32;36676;-72
2023/03/19 04:59:28;;;;;;;;;;;;;;;6.92;50.47;100797.84;5364441;32;36457;-59
2023/03/19 05:02:30;;;;;;;;;;;;;;;7.05;50.17;100807.19;5347534;32;35642;-61
2023/03/19 05:05:32;;;;;;;;;;;;;;;7.50;48.93;100807.22;5342195;32;35970;-61
2023/03/19 05:08:34;;;;;;;;;;;;;;;7.08;49.90;100811.50;5348950;32;35264;-60
2023/03/19 05:11:36;;;;;;;;;;;;;;;6.27;52.31;100814.59;5363585;32;35254;-73
2023/03/19 05:14:38;;;;;;;;;;;;;;;5.53;54.92;100823.31;5363493;32;39147;-73
2023/03/19 05:17:40;;;;;;;;;;;;;;;6.18;53.02;100815.56;5361694;32;36246;-75
2023/03/19 05:20:42;;;;;;;;;;;;;;;7.27;50.31;100819.87;5365786;32;35295;-61
2023/03/19 05:23:44;;;;;;;;;;;;;;;6.53;51.87;100815.06;5348015;32;35748;-62
2023/03/19 05:26:46;;;;;;;;;;;;;;;7.01;50.87;100818.59;5360838;32;34700;-61
2023/03/19 05:29:48;;;;;;;;;;;;;;;7.53;49.53;100815.00;5334732;32;35442;-68
2023/03/19 05:32:50;;;;;;;;;;;;;;;6.67;51.73;100817.44;5365237;32;35598;-63
2023/03/19 05:35:52;;;;;;;;;;;;;;;6.11;53.97;100824.38;5353186;32;35590;-61
2023/03/19 05:38:54;;;;;;;;;;;;;;;6.66;52.25;100800.03;5348143;32;34862;-74
2023/03/19 05:41:55;;;;;;;;;;;;;;;7.24;52.05;100830.41;5370522;32;35791;-69
2023/03/19 05:44:57;;;;;;;;;;;;;;;8.03;49.85;100810.47;5336640;32;36364;-61
2023/03/19 05:47:59;;;;;;;;;;;;;;;9.63;46.12;100815.22;5382575;32;35018;-74
2023/03/19 05:51:01;;;;;;;;;;;;;;;10.20;44.36;100820.53;5351355;32;37462;-73
2023/03/19 05:54:03;;;;;;;;;;;;;;;9.47;45.29;100820.06;5365954;32;36121;-61
2023/03/19 05:57:06;;;;;;;;;;;;;;;10.22;43.89;100821.34;5381470;32;35165;-60
2023/03/19 06:00:08;;;;;;;;;;;;;;;9.79;45.19;100827.03;5348828;32;38799;-63
2023/03/19 06:03:10;;;;;;;;;;;;;;;11.36;40.78;100808.81;5370729;32;35091;-60
2023/03/19 06:06:12;;;;;;;;;;;;;;;9.72;44.37;100818.47;5336794;32;36143;-74
2023/03/19 06:09:14;;;;;;;;;;;;;;;9.63;43.63;100831.84;5375023;32;36596;-73
2023/03/19 06:12:16;;;;;;;;;;;;;;;10.08;42.50;100828.78;5351283;32;35225;-74
2023/03/19 06:15:18;;;;;;;;;;;;;;;10.37;41.33;100829.69;5363336;32;35422;-61
2023/03/19 06:18:21;;;;;;;;;;;;;;;10.50;41.07;100831.03;5377706;32;34853;-61
2023/03/19 06:21:28;;;;;;;;;;;;;;;11.25;39.00;100832.03;5347876;32;36062;-61
2023/03/19 06:24:30;;;;;;;;;;;;;;;11.48;38.06;100827.72;5366064;32;35259;-74
2023/03/19 06:27:32;;;;;;;;;;;;;;;10.68;40.14;100825.16;5350785;32;36101;-73
2023/03/19 06:30:34;;;;;;;;;;;;;;;11.19;38.26;100831.38;5374115;32;36249;-65
2023/03/19 06:33:37;;;;;;;;;;;;;;;11.81;37.27;100837.06;5341026;32;35501;-62
2023/03/19 06:36:41;;;;;;;;;;;;;;;11.16;38.97;100840.25;5371081;32;44535;-61
2023/03/19 06:39:43;;;;;;;;;;;;;;;10.83;39.96;100853.63;5366670;32;36050;-61
2023/03/19 06:42:48;;;;;;;;;;;;;;;11.71;37.09;100842.69;5348205;32;35796;-60
2023/03/19 06:45:50;;;;;;;;;;;;;;;11.99;37.78;100845.22;5363693;32;35398;-61
2023/03/19 06:48:53;;;;;;;;;;;;;;;12.82;34.78;100848.94;5335430;32;35431;-62
2023/03/19 06:51:54;;;;;;;;;;;;;;;12.77;33.89;100850.91;5387396;32;36222;-61
2023/03/19 06:54:56;;;;;;;;;;;;;;;12.53;34.57;100859.78;5351276;32;35393;-74
2023/03/19 06:57:58;;;;;;;;;;;;;;;12.85;34.10;100840.87;5354228;32;35519;-62
2023/03/19 07:01:01;;;;;;;;;;;;;;;14.09;31.70;100846.91;5353103;32;35500;-73
2023/03/19 07:04:03;;;;;;;;;;;;;;;15.94;28.46;100836.78;5326659;32;35857;-62
2023/03/19 07:07:05;;;;;;;;;;;;;;;14.98;29.77;100840.00;5375599;32;36178;-72
2023/03/19 07:10:07;;;;;;;;;;;;;;;12.97;32.52;100847.44;5364299;32;34763;-73
2023/03/19 07:13:09;;;;;;;;;;;;;;;16.01;28.16;100832.88;5351403;32;45029;-72
2023/03/19 07:16:11;;;;;;;;;;;;;;;15.44;28.44;100832.34;5348216;32;35710;-60
2023/03/19 07:19:13;;;;;;;;;;;;;;;17.29;25.97;100828.19;5350869;32;35807;-73
2023/03/19 07:22:15;;;;;;;;;;;;;;;16.13;27.19;100816.28;5375779;32;35503;-73
2023/03/19 07:25:17;;;;;;;;;;;;;;;15.89;27.36;100836.19;5353561;32;35655;-73
2023/03/19 07:28:19;;;;;;;;;;;;;;;14.24;29.56;100815.41;5353846;32;36429;-60
2023/03/19 07:31:21;;;;;;;;;;;;;;;15.05;28.87;100811.44;5338981;32;35849;-71
2023/03/19 07:34:23;;;;;;;;;;;;;;;15.05;28.79;100801.69;5362979;32;36312;-73
2023/03/19 07:37:25;;;;;;;;;;;;;;;15.87;27.19;100807.13;5361616;32;35586;-62
2023/03/19 07:40:27;;;;;;;;;;;;;;;14.95;29.27;100829.59;5349631;32;35993;-60
2023/03/19 07:43:30;;;;;;;;;;;;;;;15.06;28.55;100837.81;5363085;32;35995;-72
2023/03/19 07:46:32;;;;;;;;;;;;;;;16.97;26.23;100831.91;5346414;32;35529;-73
2023/03/19 07:49:34;;;;;;;;;;;;;;;15.95;27.38;100809.34;5352626;32;35515;-61
2023/03/19 07:52:36;;;;;;;;;;;;;;;17.57;24.99;100818.53;5351310;32;35365;-72
2023/03/19 07:55:38;;;;;;;;;;;;;;;18.36;23.85;100808.25;5368143;32;34697;-73
2023/03/19 07:58:40;;;;;;;;;;;;;;;18.65;23.39;100810.78;5349333;32;45333;-75
2023/03/19 08:01:42;;;;;;;;;;;;;;;17.31;24.96;100814.81;5335070;32;35388;-73
2023/03/19 08:04:44;;;;;;;;;;;;;;;16.18;26.46;100824.00;5368117;32;34363;-62
2023/03/19 08:07:48;;;;;;;;;;;;;;;16.85;25.79;100812.22;5350917;32;35202;-74
2023/03/19 08:10:53;;;;;;;;;;;;;;;15.77;26.80;100818.28;5362728;32;36200;-61
2023/03/19 08:13:55;;;;;;;;;;;;;;;13.58;30.49;100823.69;5360620;32;35548;-60
2023/03/19 08:16:56;;;;;;;;;;;;;;;14.06;29.83;100814.47;5368378;32;35291;-60
2023/03/19 08:19:58;;;;;;;;;;;;;;;13.82;30.04;100811.19;5363062;32;37064;-73
2023/03/19 08:23:00;;;;;;;;;;;;;;;13.07;31.23;100800.41;5364156;32;36050;-61
2023/03/19 08:26:02;;;;;;;;;;;;;;;13.44;30.65;100810.25;5369723;32;35603;-74
2023/03/19 08:29:05;;;;;;;;;;;;;;;12.86;31.65;100808.31;5348188;32;35587;-60
2023/03/19 08:32:07;;;;;;;;;;;;;;;13.48;30.59;100812.72;5352003;32;34641;-73
2023/03/19 08:35:09;;;;;;;;;;;;;;;12.63;31.87;100816.31;5343850;32;44529;-62
2023/03/19 08:38:11;;;;;;;;;;;;;;;12.25;32.97;100831.03;5355577;32;35332;-74
2023/03/19 08:41:13;;;;;;;;;;;;;;;12.19;33.17;100826.84;5354308;32;35236;-72
2023/03/19 08:44:15;;;;;;;;;;;;;;;13.06;31.54;100823.28;5358182;32;38159;-73
2023/03/19 08:47:17;;;;;;;;;;;;;;;12.61;32.32;100823.44;5364554;32;35890;-68
2023/03/19 08:50:19;;;;;;;;;;;;;;;12.48;32.35;100823.06;5337675;32;35443;-60
2023/03/19 08:53:22;;;;;;;;;;;;;;;11.83;33.36;100824.69;5368085;32;35284;-68
2023/03/19 08:56:24;;;;;;;;;;;;;;;13.30;31.18;100810.88;5354558;32;36040;-61
2023/03/19 08:59:26;;;;;;;;;;;;;;;12.03;33.30;100821.31;5349372;32;36127;-72
2023/03/19 09:02:28;;;;;;;;;;;;;;;12.57;32.31;100813.94;5374270;32;35490;-62
2023/03/19 09:05:30;;;;;;;;;;;;;;;12.42;32.57;100818.03;5334711;32;35393;-61
2023/03/19 09:08:32;;;;;;;;;;;;;;;12.30;32.96;100803.59;5371252;32;35414;-61
2023/03/19 09:11:34;;;;;;;;;;;;;;;13.75;30.57;100796.53;5354400;32;35605;-74
2023/03/19 09:14:36;;;;;;;;;;;;;;;13.60;30.36;100790.19;5381271;32;36338;-75
2023/03/19 09:17:38;;;;;;;;;;;;;;;13.54;30.70;100791.31;5350906;32;36096;-72
2023/03/19 09:20:40;;;;;;;;;;;;;;;13.43;31.27;100795.34;5363819;32;44793;-60
2023/03/19 09:23:42;;;;;;;;;;;;;;;13.71;30.58;100782.59;5379178;32;36065;-62
2023/03/19 09:26:45;;;;;;;;;;;;;;;14.58;29.08;100788.22;5345772;32;34716;-73
2023/03/19 09:29:46;;;;;;;;;;;;;;;15.37;28.05;100793.88;5354712;32;34807;-71
2023/03/19 09:32:49;;;;;;;;;;;;;;;16.63;26.08;100783.41;5345588;32;35634;-61
2023/03/19 09:35:51;;;;;;;;;;;;;;;16.73;25.79;100781.94;5369023;32;35131;-62
2023/03/19 09:38:54;;;;;;;;;;;;;;;19.54;22.80;100768.31;5350857;32;35655;-62
2023/03/19 09:42:11;;;;;;;;;;;;;;;18.83;23.01;100769.66;5348823;32;35478;-73
2023/03/19 09:45:14;;;;;;;;;;;;;;;20.92;20.70;100759.09;5356064;32;47122;-61
2023/03/19 09:48:24;;;;;;;;;;;;;;;19.07;22.35;100763.63;5349508;32;35415;-60
2023/03/19 09:51:40;;;;;;;;;;;;;;;19.42;22.41;100766.50;5359840;32;36314;-72
2023/03/19 09:54:43;;;;;;;;;;;;;;;22.05;19.04;100744.81;5337304;32;44656;-73
2023/03/19 09:57:46;;;;;;;;;;;;;;;23.44;18.01;100740.28;5350316;32;36108;-61
2023/03/19 10:00:49;;;;;;;;;;;;;;;22.74;18.68;100740.97;5358767;32;36181;-62
2023/03/19 10:04:10;;;;;;;;;;;;;;;20.06;21.37;100747.75;5323191;32;35661;-72
2023/03/19 10:07:15;;;;;;;;;;;;;;;22.94;18.29;100742.84;5353203;32;47355;-62
2023/03/19 10:10:17;;;;;;;;;;;;;;;22.33;19.00;100742.59;5350355;32;35655;-73
2023/03/19 10:13:29;;;;;;;;;;;;;;;23.43;17.79;100738.59;5354786;32;36529;-61
2023/03/19 10:16:31;;;;;;;;;;;;;;;24.40;16.85;100725.47;5346086;32;35687;-61
2023/03/19 10:19:42;;;;;;;;;;;;;;;24.53;16.58;100728.72;5335468;32;35467;-74
2023/03/19 10:22:49;;;;;;;;;;;;;;;23.57;17.65;100735.56;5351318;32;46929;-73
2023/03/19 10:25:51;;;;;;;;;;;;;;;20.62;19.99;100750.75;5357268;32;35780;-74
2023/03/19 10:29:16;;;;;;;;;;;;;;;21.28;19.86;100734.06;5371355;32;36141;-73
2023/03/19 10:32:19;;;;;;;;;;;;;;;21.24;20.29;100727.19;5338913;32;36415;-73
2023/03/19 10:35:26;;;;;;;;;;;;;;;21.99;19.39;100723.91;5344638;32;36524;-70
2023/03/19 10:38:29;;;;;;;;;;;;;;;23.39;18.07;100721.09;5352795;32;34785;-63
2023/03/19 10:41:34;;;;;;;;;;;;;;;24.31;17.32;100709.19;5344359;32;35883;-74
2023/03/19 10:44:37;;;;;;;;;;;;;;;23.72;17.86;100707.41;5369693;32;35893;-63
2023/03/19 10:47:40;;;;;;;;;;;;;;;23.67;17.86;100698.91;5329742;32;44966;-63
2023/03/19 10:51:01;;;;;;;;;;;;;;;21.65;19.69;100703.56;5373685;32;35200;-75
2023/03/19 10:54:02;;;;;;;;;;;;;;;25.07;16.40;100690.50;5348696;32;38592;-76
2023/03/19 10:57:04;;;;;;;;;;;;;;;23.24;18.17;100686.56;5340026;32;35428;-63
2023/03/19 11:00:17;;;;;;;;;;;;;;;22.81;18.74;100686.72;5386579;32;37865;-76
2023/03/19 11:03:28;;;;;;;;;;;;;;;25.61;16.30;100671.84;5346558;32;36363;-75
2023/03/19 11:06:31;;;;;;;;;;;;;;;23.57;17.30;100676.53;5343853;32;35111;-62
2023/03/19 11:09:34;;;;;;;;;;;;;;;23.58;17.98;100680.91;5343987;32;37628;-74
2023/03/19 11:12:36;;;;;;;;;;;;;;;20.92;21.06;100673.59;5337655;32;35896;-74
2023/03/19 11:15:38;;;;;;;;;;;;;;;21.05;20.43;100663.66;5351964;32;47266;-62
2023/03/19 11:18:41;;;;;;;;;;;;;;;22.89;18.58;100657.47;5362200;32;35975;-61
2023/03/19 11:21:43;;;;;;;;;;;;;;;21.30;20.20;100659.91;5373437;32;35300;-74
2023/03/19 11:24:55;;;;;;;;;;;;;;;21.47;19.80;100658.59;5339958;32;35439;-62
2023/03/19 11:28:08;;;;;;;;;;;;;;;20.91;20.50;100636.31;5363054;32;36205;-74
2023/03/19 11:31:21;;;;;;;;;;;;;;;20.08;21.37;100642.59;5370097;32;45404;-75
2023/03/19 11:34:38;;;;;;;;;;;;;;;21.17;20.32;100605.72;5347063;32;34725;-71
2023/03/19 11:37:53;;;;;;;;;;;;;;;23.80;17.52;100625.34;5367014;32;44410;-63
2023/03/19 11:41:08;;;;;;;;;;;;;;;22.31;18.84;100616.03;5355319;32;35495;-75
2023/03/19 11:44:30;;;;;;;;;;;;;;;21.66;18.92;100630.34;5371756;32;44965;-61
2023/03/19 11:47:32;;;;;;;;;;;;;;;22.28;18.59;100611.75;5374040;32;35456;-61
2023/03/19 11:50:52;;;;;;;;;;;;;;;22.48;18.49;100604.75;5366907;32;35575;-76
2023/03/19 11:54:04;;;;;;;;;;;;;;;22.56;18.77;100604.09;5370404;32;35548;-61
2023/03/19 11:57:38;;;;;;;;;;;;;;;23.08;18.08;100600.41;5344628;32;35295;-62
2023/03/19 12:00:46;;;;;;;;;;;;;;;21.68;19.55;100607.84;5326066;32;36164;-62
2023/03/19 12:03:52;;;;;;;;;;;;;;;22.48;18.53;100596.72;5380007;32;35834;-73
2023/03/19 12:07:15;;;;;;;;;;;;;;;24.15;17.03;100590.75;5359345;32;36055;-61
2023/03/19 12:10:33;;;;;;;;;;;;;;;24.43;16.90;100582.81;5384118;32;45588;-75
2023/03/19 12:13:37;;;;;;;;;;;;;;;26.42;15.00;100575.75;5375450;32;37143;-64
2023/03/19 12:16:47;;;;;;;;;;;;;;;23.81;16.92;100568.00;5367773;32;44791;-62
2023/03/19 12:20:02;;;;;;;;;;;;;;;25.59;15.43;100560.81;5401009;32;35231;-63
2023/03/19 12:23:04;;;;;;;;;;;;;;;24.90;16.08;100551.41;5335934;32;35949;-61
2023/03/19 12:26:07;;;;;;;;;;;;;;;23.76;17.13;100552.31;5365211;32;35021;-61
2023/03/19 12:29:09;;;;;;;;;;;;;;;24.45;16.07;100549.44;5357932;32;44624;-61
2023/03/19 12:32:24;;;;;;;;;;;;;;;24.16;16.45;100549.47;5365469;32;35731;-74
2023/03/19 12:35:45;;;;;;;;;;;;;;;23.33;17.34;100545.47;5370836;32;36322;-74
2023/03/19 12:38:49;;;;;;;;;;;;;;;23.49;17.06;100542.22;5337968;32;44554;-61
2023/03/19 12:41:52;;;;;;;;;;;;;;;23.14;17.70;100545.41;5355441;32;35407;-74
2023/03/19 12:44:55;;;;;;;;;;;;;;;24.87;16.04;100513.25;5351122;32;35781;-69
2023/03/19 12:47:59;;;;;;;;;;;;;;;24.83;16.10;100526.13;5356301;32;34996;-65
2023/03/19 12:51:04;;;;;;;;;;;;;;;25.25;15.57;100509.50;5370781;32;35416;-73
2023/03/19 12:54:13;;;;;;;;;;;;;;;23.61;16.61;100517.00;5339268;32;35977;-64
2023/03/19 12:57:21;;;;;;;;;;;;;;;26.25;14.67;100503.84;5357869;32;44286;-61
2023/03/19 13:00:23;;;;;;;;;;;;;;;23.93;16.76;100505.13;5344000;32;35997;-73
2023/03/19 13:03:45;;;;;;;;;;;;;;;26.38;14.58;100504.25;5356486;32;35611;-63
2023/03/19 13:06:47;;;;;;;;;;;;;;;26.04;14.95;100487.22;5367892;32;45948;-63
2023/03/19 13:09:51;;;;;;;;;;;;;;;27.67;13.35;100469.81;5367440;32;34620;-75
2023/03/19 13:12:53;;;;;;;;;;;;;;;25.14;15.61;100490.91;5380756;32;34860;-61
2023/03/19 13:15:56;;;;;;;;;;;;;;;27.20;13.95;100469.62;5367922;32;35550;-69
2023/03/19 13:19:10;;;;;;;;;;;;;;;28.64;12.54;100475.28;5366908;32;35551;-74
2023/03/19 13:22:16;;;;;;;;;;;;;;;29.58;11.92;100464.31;5343554;32;44427;-61
2023/03/19 13:25:19;;;;;;;;;;;;;;;30.91;11.13;100463.59;5343507;32;35897;-74
2023/03/19 13:28:28;;;;;;;;;;;;;;;27.91;12.88;100465.47;5367825;32;35081;-61
2023/03/19 13:31:34;;;;;;;;;;;;;;;27.43;13.27;100457.16;5352107;32;35221;-73
2023/03/19 13:34:36;;;;;;;;;;;;;;;27.85;12.95;100449.94;5362022;32;36038;-74
2023/03/19 13:37:41;;;;;;;;;;;;;;;25.13;14.92;100468.53;5337081;32;44512;-62
2023/03/19 13:40:45;;;;;;;;;;;;;;;23.83;16.26;100464.91;5357378;32;35690;-74
2023/03/19 13:43:51;;;;;;;;;;;;;;;23.65;16.10;100464.78;5360694;32;35567;-75
2023/03/19 13:46:53;;;;;;;;;;;;;;;23.36;16.74;100451.31;5364474;32;35201;-74
2023/03/19 13:50:09;;;;;;;;;;;;;;;21.88;17.98;100440.31;5379461;32;35343;-61
2023/03/19 13:53:43;;;;;;;;;;;;;;;20.22;19.98;100450.31;5353377;32;44706;-60
2023/03/19 13:56:59;;;;;;;;;;;;;;;20.50;19.92;100451.66;5316192;32;44717;-61
2023/03/19 14:00:20;;;;;;;;;;;;;;;20.37;20.13;100431.38;5379884;32;36729;-60
2023/03/19 14:03:23;;;;;;;;;;;;;;;19.68;21.13;100444.72;5357477;32;35824;-61
2023/03/19 14:06:29;;;;;;;;;;;;;;;18.71;22.35;100443.00;5359387;32;35520;-73
2023/03/19 14:09:39;;;;;;;;;;;;;;;19.89;21.01;100439.56;5362992;32;35594;-61
2023/03/19 14:12:41;;;;;;;;;;;;;;;19.88;21.09;100436.06;5346234;32;44682;-61
2023/03/19 14:15:47;;;;;;;;;;;;;;;19.52;21.62;100428.19;5372334;32;35665;-73
2023/03/19 14:18:49;;;;;;;;;;;;;;;20.43;20.69;100431.75;5345289;32;34657;-72
2023/03/19 14:21:53;;;;;;;;;;;;;;;19.51;21.69;100442.44;5382006;32;35172;-61
2023/03/19 14:25:01;;;;;;;;;;;;;;;19.60;21.64;100447.13;5351316;32;35412;-61
2023/03/19 14:28:08;;;;;;;;;;;;;;;19.59;21.74;100437.44;5362218;32;34960;-60
2023/03/19 14:31:19;;;;;;;;;;;;;;;19.09;22.36;100437.56;5356573;32;44838;-73
2023/03/19 14:34:24;;;;;;;;;;;;;;;19.28;21.99;100436.19;5346848;32;36271;-73
2023/03/19 14:37:33;;;;;;;;;;;;;;;19.85;21.52;100428.31;5368161;32;34786;-61
2023/03/19 14:40:41;;;;;;;;;;;;;;;19.60;21.91;100426.66;5347879;32;35434;-74
2023/03/19 14:44:02;;;;;;;;;;;;;;;20.32;21.01;100426.41;5352592;32;44278;-75
2023/03/19 14:47:16;;;;;;;;;;;;;;;20.66;20.44;100421.06;5361157;32;36065;-60
2023/03/19 14:50:24;;;;;;;;;;;;;;;19.27;22.16;100437.16;5348391;32;45003;-73
2023/03/19 14:53:34;;;;;;;;;;;;;;;19.51;21.68;100432.63;5361508;32;35433;-72
2023/03/19 14:56:36;;;;;;;;;;;;;;;18.93;22.43;100434.31;5336977;32;35343;-61
2023/03/19 14:59:39;;;;;;;;;;;;;;;19.36;21.83;100434.66;5355677;32;44473;-72
2023/03/19 15:02:50;;;;;;;;;;;;;;;19.37;21.92;100436.34;5350392;32;35431;-74
2023/03/19 15:05:55;;;;;;;;;;;;;;;20.23;20.96;100432.47;5329594;32;35316;-63
2023/03/19 15:08:59;;;;;;;;;;;;;;;20.21;21.05;100427.22;5347919;32;34768;-61
2023/03/19 15:12:26;;;;;;;;;;;;;;;19.87;21.44;100431.69;5372403;32;35316;-73
2023/03/19 15:15:50;;;;;;;;;;;;;;;19.94;21.32;100418.72;5365797;32;35183;-61
2023/03/19 15:18:52;;;;;;;;;;;;;;;19.15;22.42;100426.44;5331183;32;35998;-70
2023/03/19 15:22:11;;;;;;;;;;;;;;;19.16;22.41;100427.28;5351391;32;35607;-70
2023/03/19 15:25:13;;;;;;;;;;;;;;;18.19;23.67;100438.69;5371437;32;44828;-61
2023/03/19 15:28:16;;;;;;;;;;;;;;;18.81;23.05;100441.41;5351330;32;36959;-69
2023/03/19 15:31:18;;;;;;;;;;;;;;;19.28;22.58;100436.19;5357316;32;36150;-61
2023/03/19 15:34:41;;;;;;;;;;;;;;;19.04;22.93;100433.53;5349516;32;45027;-61
2023/03/19 15:37:45;;;;;;;;;;;;;;;18.14;24.03;100444.31;5348288;32;34718;-60
2023/03/19 15:40:47;;;;;;;;;;;;;;;19.08;22.60;100429.69;5379850;32;34832;-74
2023/03/19 15:43:49;;;;;;;;;;;;;;;19.27;22.22;100438.00;5349279;32;35750;-74
2023/03/19 15:46:50;;;;;;;;;;;;;;;19.16;22.32;100436.13;5368825;32;35325;-73
2023/03/19 15:49:57;;;;;;;;;;;;;;;18.91;22.79;100438.91;5352962;32;35566;-69
2023/03/19 15:53:00;;;;;;;;;;;;;;;18.51;23.27;100439.09;5347432;32;35609;-73